createdAt,value
2018-09-18T00:00:56.665Z,18.19
2018-09-18T00:04:00.309Z,17.76
2018-09-18T00:07:03.980Z,18.10
2018-09-18T00:10:07.915Z,17.97
2018-09-18T00:13:11.701Z,17.79
2018-09-18T00:16:15.259Z,17.52
2018-09-18T00:19:18.999Z,17.66
2018-09-18T00:22:22.757Z,18.14
2018-09-18T00:25:26.434Z,18.14
2018-09-18T00:28:30.074Z,17.81
2018-09-18T00:31:33.681Z,18.08
2018-09-18T00:34:37.486Z,18.22
2018-09-18T00:37:41.186Z,18.27
2018-09-18T00:40:44.855Z,18.07
2018-09-18T00:43:48.492Z,17.94
2018-09-18T00:46:52.227Z,18.50
2018-09-18T00:49:55.791Z,18.24
2018-09-18T00:52:59.434Z,17.94
2018-09-18T00:56:03.102Z,18.04
2018-09-18T00:59:06.729Z,18.24
2018-09-18T01:02:10.290Z,18.25
2018-09-18T01:05:13.991Z,18.19
2018-09-18T01:08:17.664Z,17.89
2018-09-18T01:11:21.329Z,18.02
2018-09-18T01:14:25.072Z,18.39
2018-09-18T01:17:28.739Z,18.28
2018-09-18T01:20:32.320Z,18.38
2018-09-18T01:23:35.965Z,18.39
2018-09-18T01:26:39.707Z,18.64
2018-09-18T01:29:43.695Z,18.54
2018-09-18T01:32:47.310Z,18.77
2018-09-18T01:35:50.953Z,18.57
2018-09-18T01:38:54.554Z,18.50
2018-09-18T01:41:58.121Z,18.52
2018-09-18T01:45:01.826Z,18.54
2018-09-18T01:48:05.496Z,18.18
2018-09-18T01:51:09.200Z,18.40
2018-09-18T01:54:12.879Z,18.06
2018-09-18T01:57:16.555Z,18.13
2018-09-18T02:00:20.246Z,18.11
2018-09-18T02:03:23.834Z,18.29
2018-09-18T02:06:27.481Z,18.18
2018-09-18T02:09:31.024Z,18.13
2018-09-18T02:12:34.676Z,18.20
2018-09-18T02:15:38.244Z,18.30
2018-09-18T02:18:41.894Z,18.13
2018-09-18T02:21:45.620Z,18.29
2018-09-18T02:24:49.282Z,18.12
2018-09-18T02:27:53.054Z,18.33
2018-09-18T02:30:56.712Z,18.02
2018-09-18T02:34:00.409Z,17.74
2018-09-18T02:37:04.200Z,17.94
2018-09-18T02:40:08.093Z,18.06
2018-09-18T02:43:11.705Z,17.95
2018-09-18T02:46:15.388Z,17.64
2018-09-18T02:49:19.208Z,17.85
2018-09-18T02:52:22.990Z,17.68
2018-09-18T02:55:26.585Z,17.44
2018-09-18T02:58:30.169Z,17.32
2018-09-18T03:01:33.872Z,17.21
2018-09-18T03:04:37.517Z,17.19
2018-09-18T03:07:41.259Z,17.16
2018-09-18T03:10:44.874Z,17.20
2018-09-18T03:13:48.656Z,17.21
2018-09-18T03:16:52.301Z,17.28
2018-09-18T03:19:55.924Z,17.15
2018-09-18T03:22:59.548Z,17.61
2018-09-18T03:26:03.267Z,17.52
2018-09-18T03:29:06.855Z,17.44
2018-09-18T03:32:10.441Z,17.33
2018-09-18T03:35:13.984Z,17.49
2018-09-18T03:38:17.726Z,17.11
2018-09-18T03:41:21.329Z,17.21
2018-09-18T03:44:25.101Z,17.31
2018-09-18T03:47:28.731Z,17.15
2018-09-18T03:50:32.409Z,16.80
2018-09-18T03:53:35.991Z,16.81
2018-09-18T03:56:39.881Z,16.73
2018-09-18T03:59:43.659Z,16.72
2018-09-18T04:02:47.316Z,16.82
2018-09-18T04:05:51.025Z,16.78
2018-09-18T04:08:54.707Z,16.47
2018-09-18T04:11:58.290Z,16.69
2018-09-18T04:15:01.984Z,16.65
2018-09-18T04:18:05.641Z,16.62
2018-09-18T04:21:09.775Z,16.30
2018-09-18T04:24:13.662Z,16.04
2018-09-18T04:27:17.226Z,16.10
2018-09-18T04:30:20.860Z,15.89
2018-09-18T04:33:24.439Z,16.12
2018-09-18T04:36:28.065Z,16.07
2018-09-18T04:39:31.716Z,16.15
2018-09-18T04:42:35.480Z,16.10
2018-09-18T04:45:39.156Z,16.30
2018-09-18T04:48:42.741Z,16.45
2018-09-18T04:51:46.515Z,16.27
2018-09-18T04:54:50.276Z,16.20
2018-09-18T04:57:53.871Z,16.24
2018-09-18T05:00:57.582Z,16.47
2018-09-18T05:04:01.236Z,16.19
2018-09-18T05:07:04.870Z,16.01
2018-09-18T05:10:08.606Z,16.10
2018-09-18T05:13:12.227Z,16.21
2018-09-18T05:16:15.975Z,16.45
2018-09-18T05:19:19.680Z,16.75
2018-09-18T05:22:23.344Z,16.91
2018-09-18T05:25:27.073Z,17.25
2018-09-18T05:28:30.706Z,17.04
2018-09-18T05:31:34.450Z,16.95
2018-09-18T05:34:38.141Z,17.09
2018-09-18T05:37:41.775Z,17.59
2018-09-18T05:40:45.416Z,18.40
2018-09-18T05:43:49.076Z,19.75
2018-09-18T05:46:52.790Z,20.47
2018-09-18T05:49:56.509Z,21.06
2018-09-18T05:53:00.221Z,21.46
2018-09-18T05:56:03.929Z,21.31
2018-09-18T05:59:07.745Z,21.22
2018-09-18T06:02:11.384Z,20.93
2018-09-18T06:05:15.100Z,21.78
2018-09-18T06:08:18.815Z,22.27
2018-09-18T06:11:22.505Z,21.76
2018-09-18T06:14:26.221Z,21.80
2018-09-18T06:17:29.923Z,22.23
2018-09-18T06:20:33.704Z,22.11
2018-09-18T06:23:37.275Z,21.72
2018-09-18T06:26:41.025Z,22.07
2018-09-18T06:29:44.694Z,21.75
2018-09-18T06:32:48.491Z,21.77
2018-09-18T06:35:52.580Z,21.59
2018-09-18T06:38:56.240Z,21.23
2018-09-18T06:41:59.863Z,21.38
2018-09-18T06:45:03.518Z,21.35
2018-09-18T06:48:07.423Z,21.31
2018-09-18T06:51:10.944Z,21.57
2018-09-18T06:54:14.594Z,21.33
2018-09-18T06:57:18.298Z,21.50
2018-09-18T07:00:21.997Z,21.45
2018-09-18T07:03:25.675Z,21.36
2018-09-18T07:06:29.399Z,21.52
2018-09-18T07:09:33.036Z,21.45
2018-09-18T07:12:36.601Z,21.73
2018-09-18T07:15:40.509Z,21.55
2018-09-18T07:18:44.149Z,21.68
2018-09-18T07:21:48.052Z,21.79
2018-09-18T07:24:51.744Z,21.91
2018-09-18T07:27:55.360Z,21.96
2018-09-18T07:30:59.059Z,22.02
2018-09-18T07:34:02.794Z,22.19
2018-09-18T07:37:06.589Z,22.25
2018-09-18T07:40:10.173Z,22.39
2018-09-18T07:43:13.820Z,22.54
2018-09-18T07:46:17.484Z,22.62
2018-09-18T07:49:21.139Z,22.51
2018-09-18T07:52:24.957Z,22.63
2018-09-18T07:55:28.587Z,22.69
2018-09-18T07:58:32.351Z,22.60
2018-09-18T08:01:35.981Z,22.82
2018-09-18T08:04:39.601Z,22.91
2018-09-18T08:07:43.184Z,22.98
2018-09-18T08:10:46.867Z,23.03
2018-09-18T08:13:50.621Z,22.97
2018-09-18T08:16:54.281Z,23.24
2018-09-18T08:19:58.141Z,23.44
2018-09-18T08:23:02.172Z,23.46
2018-09-18T08:26:06.088Z,23.56
2018-09-18T08:29:11.526Z,23.65
2018-09-18T08:32:15.864Z,23.62
2018-09-18T08:35:19.534Z,23.69
2018-09-18T08:38:23.400Z,23.82
2018-09-18T08:41:27.037Z,23.94
2018-09-18T08:44:30.777Z,23.98
2018-09-18T08:47:34.496Z,23.85
2018-09-18T08:50:38.392Z,24.09
2018-09-18T08:53:42.238Z,24.04
2018-09-18T08:56:45.912Z,24.25
2018-09-18T08:59:49.575Z,24.39
2018-09-18T09:02:53.554Z,24.48
2018-09-18T09:05:57.226Z,24.74
2018-09-18T09:09:01.007Z,24.74
2018-09-18T09:12:04.673Z,24.90
2018-09-18T09:15:08.519Z,25.09
2018-09-18T09:18:12.188Z,25.21
2018-09-18T09:21:15.944Z,25.04
2018-09-18T09:24:19.654Z,25.16
2018-09-18T09:27:23.429Z,25.28
2018-09-18T09:30:27.160Z,25.44
2018-09-18T09:33:31.015Z,25.62
2018-09-18T09:36:34.665Z,25.52
2018-09-18T09:39:38.371Z,25.71
2018-09-18T09:42:42.111Z,26.01
2018-09-18T09:45:45.727Z,25.52
2018-09-18T09:48:49.474Z,25.76
2018-09-18T09:51:53.102Z,25.68
2018-09-18T09:54:56.761Z,25.80
2018-09-18T09:58:00.405Z,25.96
2018-09-18T10:01:09.309Z,26.13
2018-09-18T10:04:12.960Z,26.36
2018-09-18T10:07:16.767Z,26.37
2018-09-18T10:10:20.324Z,26.37
2018-09-18T10:13:24.189Z,26.47
2018-09-18T10:16:27.926Z,26.61
2018-09-18T10:19:31.540Z,26.69
2018-09-18T10:22:35.379Z,26.83
2018-09-18T10:25:39.034Z,26.91
2018-09-18T10:28:42.690Z,27.10
2018-09-18T10:31:46.299Z,27.31
2018-09-18T10:34:49.977Z,27.19
2018-09-18T10:37:53.684Z,27.38
2018-09-18T10:40:57.539Z,27.47
2018-09-18T10:44:01.132Z,27.49
2018-09-18T10:47:04.821Z,27.56
2018-09-18T10:50:08.485Z,27.43
2018-09-18T10:53:12.129Z,27.57
2018-09-18T10:56:15.814Z,27.51
2018-09-18T10:59:19.639Z,27.76
2018-09-18T11:02:23.371Z,27.78
2018-09-18T11:05:26.942Z,28.04
2018-09-18T11:08:30.623Z,28.17
2018-09-18T11:11:34.172Z,28.11
2018-09-18T11:14:38.547Z,28.19
2018-09-18T11:17:42.147Z,28.33
2018-09-18T11:20:45.828Z,28.24
2018-09-18T11:23:49.430Z,28.43
2018-09-18T11:26:53.050Z,28.57
2018-09-18T11:29:56.646Z,28.52
2018-09-18T11:33:00.401Z,28.79
2018-09-18T11:36:04.077Z,28.87
2018-09-18T11:39:10.441Z,28.93
2018-09-18T11:42:14.351Z,29.06
2018-09-18T11:45:17.941Z,29.17
2018-09-18T11:48:21.575Z,29.27
2018-09-18T11:51:25.360Z,29.24
2018-09-18T11:54:29.004Z,29.30
2018-09-18T11:57:32.670Z,29.36
2018-09-18T12:00:36.539Z,29.46
2018-09-18T12:03:40.512Z,29.53
2018-09-18T12:06:44.471Z,29.58
2018-09-18T12:09:48.357Z,29.48
2018-09-18T12:12:51.977Z,29.52
2018-09-18T12:15:55.790Z,29.67
2018-09-18T12:18:59.525Z,29.64
2018-09-18T12:22:03.329Z,29.68
2018-09-18T12:25:07.038Z,29.78
2018-09-18T12:28:10.826Z,29.71
2018-09-18T12:31:14.500Z,29.71
2018-09-18T12:34:19.135Z,29.91
2018-09-18T12:37:22.850Z,29.92
2018-09-18T12:40:26.485Z,30.01
2018-09-18T12:43:30.275Z,29.82
2018-09-18T12:46:34.899Z,30.04
2018-09-18T12:49:39.869Z,30.00
2018-09-18T12:52:43.479Z,29.98
2018-09-18T12:55:47.165Z,29.75
2018-09-18T12:58:51.021Z,29.77
2018-09-18T13:01:54.657Z,29.95
2018-09-18T13:04:58.411Z,30.12
2018-09-18T13:08:02.166Z,29.98
2018-09-18T13:11:05.912Z,30.00
2018-09-18T13:14:10.210Z,30.08
2018-09-18T13:17:13.827Z,30.00
2018-09-18T13:20:17.554Z,30.07
2018-09-18T13:23:21.491Z,30.26
2018-09-18T13:26:25.199Z,30.32
2018-09-18T13:29:28.871Z,30.33
2018-09-18T13:32:32.579Z,30.27
2018-09-18T13:35:36.326Z,30.18
2018-09-18T13:38:40.127Z,30.20
2018-09-18T13:41:44.034Z,30.46
2018-09-18T13:44:47.770Z,30.17
2018-09-18T13:47:51.692Z,30.34
2018-09-18T13:50:55.414Z,30.27
2018-09-18T13:53:59.116Z,30.39
2018-09-18T13:57:02.795Z,30.26
2018-09-18T14:00:06.804Z,30.09
2018-09-18T14:03:10.603Z,30.20
2018-09-18T14:06:14.259Z,30.44
2018-09-18T14:09:17.924Z,30.34
2018-09-18T14:12:21.697Z,30.18
2018-09-18T14:15:25.394Z,30.35
2018-09-18T14:18:29.165Z,30.13
2018-09-18T14:21:33.737Z,30.23
2018-09-18T14:24:37.406Z,30.20
2018-09-18T14:27:41.282Z,30.20
2018-09-18T14:30:45.141Z,30.10
2018-09-18T14:33:48.911Z,30.42
2018-09-18T14:36:52.659Z,30.32
2018-09-18T14:39:56.564Z,30.36
2018-09-18T14:43:00.235Z,30.18
2018-09-18T14:46:03.985Z,30.03
2018-09-18T14:49:07.685Z,30.17
2018-09-18T14:52:11.674Z,30.39
2018-09-18T14:55:15.343Z,30.27
2018-09-18T14:58:21.470Z,30.25
2018-09-18T15:01:25.206Z,30.12
2018-09-18T15:04:28.963Z,30.18
2018-09-18T15:07:34.506Z,30.33
2018-09-18T15:10:39.071Z,30.28
2018-09-18T15:13:42.822Z,30.10
2018-09-18T15:16:46.659Z,30.02
2018-09-18T15:19:50.357Z,30.05
2018-09-18T15:22:54.285Z,30.06
2018-09-18T15:25:58.170Z,30.01
2018-09-18T15:29:02.015Z,29.95
2018-09-18T15:32:07.011Z,29.82
2018-09-18T15:35:10.734Z,29.81
2018-09-18T15:38:14.632Z,29.72
2018-09-18T15:41:18.399Z,29.94
2018-09-18T15:44:22.101Z,29.67
2018-09-18T15:47:25.872Z,29.77
2018-09-18T15:50:29.606Z,29.93
2018-09-18T15:53:33.352Z,29.71
2018-09-18T15:56:37.366Z,29.58
2018-09-18T15:59:41.147Z,29.47
2018-09-18T16:02:44.931Z,29.58
2018-09-18T16:05:48.928Z,29.32
2018-09-18T16:08:52.628Z,29.33
2018-09-18T16:11:56.276Z,29.29
2018-09-18T16:15:00.373Z,29.01
2018-09-18T16:18:04.236Z,28.75
2018-09-18T16:21:08.062Z,28.85
2018-09-18T16:24:11.760Z,28.69
2018-09-18T16:27:15.601Z,28.32
2018-09-18T16:30:19.278Z,28.31
2018-09-18T16:33:23.350Z,28.37
2018-09-18T16:36:27.055Z,28.04
2018-09-18T16:39:30.758Z,27.79
2018-09-18T16:42:34.638Z,27.75
2018-09-18T16:45:38.535Z,27.75
2018-09-18T16:48:42.347Z,27.89
2018-09-18T16:51:46.220Z,27.53
2018-09-18T16:54:49.983Z,27.43
2018-09-18T16:57:53.639Z,27.50
2018-09-18T17:00:57.424Z,27.41
2018-09-18T17:04:01.359Z,27.40
2018-09-18T17:07:05.263Z,27.15
2018-09-18T17:10:09.135Z,27.11
2018-09-18T17:13:13.331Z,27.00
2018-09-18T17:16:17.089Z,26.89
2018-09-18T17:19:20.799Z,26.79
2018-09-18T17:22:24.937Z,26.52
2018-09-18T17:25:28.813Z,26.56
2018-09-18T17:28:32.611Z,26.15
2018-09-18T17:31:36.455Z,26.16
2018-09-18T17:34:40.227Z,26.17
2018-09-18T17:37:44.155Z,26.06
2018-09-18T17:40:48.377Z,26.07
2018-09-18T17:43:52.734Z,26.08
2018-09-18T17:46:56.601Z,26.02
2018-09-18T17:50:00.318Z,25.66
2018-09-18T17:53:04.168Z,25.48
2018-09-18T17:56:07.910Z,25.69
2018-09-18T17:59:12.411Z,25.79
2018-09-18T18:02:16.316Z,25.68
2018-09-18T18:05:20.641Z,25.58
2018-09-18T18:08:25.074Z,25.57
2018-09-18T18:11:29.105Z,25.54
2018-09-18T18:14:32.823Z,25.25
2018-09-18T18:17:36.633Z,25.09
2018-09-18T18:20:40.323Z,25.20
2018-09-18T18:23:43.965Z,25.16
2018-09-18T18:26:47.769Z,25.25
2018-09-18T18:29:51.441Z,25.06
2018-09-18T18:32:55.144Z,25.21
2018-09-18T18:35:58.983Z,25.14
2018-09-18T18:39:02.709Z,25.13
2018-09-18T18:42:06.462Z,24.95
2018-09-18T18:45:10.272Z,24.92
2018-09-18T18:48:14.547Z,25.09
2018-09-18T18:51:18.428Z,25.05
2018-09-18T18:54:24.237Z,25.01
2018-09-18T18:57:28.056Z,25.02
2018-09-18T19:00:32.056Z,24.98
2018-09-18T19:03:35.710Z,24.85
2018-09-18T19:06:39.476Z,24.92
2018-09-18T19:09:43.164Z,24.86
2018-09-18T19:12:47.118Z,24.87
2018-09-18T19:15:50.956Z,24.97
2018-09-18T19:18:54.849Z,24.93
2018-09-18T19:21:58.563Z,24.98
2018-09-18T19:25:02.460Z,24.87
2018-09-18T19:28:06.300Z,24.76
2018-09-18T19:31:10.139Z,24.74
2018-09-18T19:34:14.018Z,24.79
2018-09-18T19:37:17.890Z,24.70
2018-09-18T19:40:21.742Z,24.57
2018-09-18T19:43:25.477Z,24.31
2018-09-18T19:46:29.207Z,24.04
2018-09-18T19:49:33.150Z,23.87
2018-09-18T19:52:36.858Z,23.76
2018-09-18T19:55:40.556Z,23.70
2018-09-18T19:58:44.408Z,23.56
2018-09-18T20:01:48.207Z,23.51
2018-09-18T20:04:52.033Z,23.34
2018-09-18T20:07:55.905Z,23.28
2018-09-18T20:10:59.736Z,23.24
2018-09-18T20:14:03.557Z,23.12
2018-09-18T20:17:07.355Z,23.12
2018-09-18T20:20:11.290Z,23.06
2018-09-18T20:23:15.079Z,23.09
2018-09-18T20:26:18.876Z,22.95
2018-09-18T20:29:22.662Z,22.90
2018-09-18T20:32:26.318Z,22.82
2018-09-18T20:35:30.057Z,22.78
2018-09-18T20:38:33.765Z,22.64
2018-09-18T20:41:37.696Z,22.58
2018-09-18T20:44:41.446Z,22.64
2018-09-18T20:47:45.210Z,22.64
2018-09-18T20:50:48.974Z,22.49
2018-09-18T20:53:52.832Z,22.35
2018-09-18T20:56:56.572Z,22.23
2018-09-18T21:00:00.306Z,22.07
2018-09-18T21:03:04.041Z,22.09
2018-09-18T21:06:07.954Z,21.94
2018-09-18T21:09:11.876Z,21.83
2018-09-18T21:12:15.637Z,21.92
2018-09-18T21:15:19.438Z,21.80
2018-09-18T21:18:23.260Z,21.66
2018-09-18T21:21:27.100Z,21.60
2018-09-18T21:24:31.036Z,21.57
2018-09-18T21:27:34.668Z,21.55
2018-09-18T21:30:38.345Z,21.44
2018-09-18T21:33:42.116Z,21.27
2018-09-18T21:36:45.791Z,21.28
2018-09-18T21:39:49.495Z,21.24
2018-09-18T21:42:53.176Z,21.25
2018-09-18T21:45:56.892Z,21.16
2018-09-18T21:49:00.758Z,21.05
2018-09-18T21:52:04.459Z,21.15
2018-09-18T21:55:08.225Z,21.01
2018-09-18T21:58:11.806Z,20.74
2018-09-18T22:01:15.667Z,20.41
2018-09-18T22:04:19.456Z,20.15
2018-09-18T22:07:23.022Z,20.04
2018-09-18T22:10:26.854Z,19.98
2018-09-18T22:13:30.508Z,19.97
2018-09-18T22:16:34.180Z,20.02
2018-09-18T22:19:37.840Z,20.04
2018-09-18T22:22:41.610Z,20.02
2018-09-18T22:25:45.321Z,19.87
2018-09-18T22:28:48.943Z,19.96
2018-09-18T22:31:52.622Z,19.71
2018-09-18T22:34:56.274Z,19.47
2018-09-18T22:37:59.985Z,19.29
2018-09-18T22:41:03.673Z,19.13
2018-09-18T22:44:07.639Z,19.04
2018-09-18T22:47:11.362Z,18.89
2018-09-18T22:50:14.962Z,18.88
2018-09-18T22:53:18.668Z,18.73
2018-09-18T22:56:22.379Z,18.58
2018-09-18T22:59:25.987Z,18.55
2018-09-18T23:02:29.584Z,18.50
2018-09-18T23:05:33.222Z,18.68
2018-09-18T23:08:36.849Z,18.54
2018-09-18T23:11:40.443Z,18.43
2018-09-18T23:14:44.056Z,18.35
2018-09-18T23:17:47.657Z,18.22
2018-09-18T23:20:51.260Z,18.26
2018-09-18T23:23:54.989Z,18.23
2018-09-18T23:26:58.605Z,18.18
2018-09-18T23:30:02.299Z,18.26
2018-09-18T23:33:06.227Z,18.24
2018-09-18T23:36:09.836Z,18.17
2018-09-18T23:39:13.464Z,18.08
2018-09-18T23:42:17.157Z,18.12
2018-09-18T23:45:20.690Z,18.18
2018-09-18T23:48:24.398Z,18.08
2018-09-18T23:51:28.364Z,17.95
2018-09-18T23:54:31.930Z,18.02
2018-09-18T23:57:36.222Z,17.93
